sensor_id;sensor_type;location;lat;lon;timestamp;pressure;altitude;pressure_sealevel;temperature;humidity
76106;BME280;64832;45.274;5.880;2023-10-08T00:01:52;99884.50;;;23.83;53.88
76106;BME280;64832;45.274;5.880;2023-10-08T00:04:21;99894.16;;;23.86;53.74
76106;BME280;64832;45.274;5.880;2023-10-08T00:06:46;99892.47;;;23.85;53.41
76106;BME280;64832;45.274;5.880;2023-10-08T00:09:12;99889.50;;;23.86;53.71
76106;BME280;64832;45.274;5.880;2023-10-08T00:11:40;99895.78;;;23.87;53.50
76106;BME280;64832;45.274;5.880;2023-10-08T00:14:06;99888.91;;;23.84;53.36
76106;BME280;64832;45.274;5.880;2023-10-08T00:16:36;99903.97;;;23.87;53.64
76106;BME280;64832;45.274;5.880;2023-10-08T00:19:06;99900.19;;;23.88;53.51
76106;BME280;64832;45.274;5.880;2023-10-08T00:21:34;99896.63;;;23.87;53.43
76106;BME280;64832;45.274;5.880;2023-10-08T00:24:02;99899.94;;;23.89;53.28
76106;BME280;64832;45.274;5.880;2023-10-08T00:26:32;99894.72;;;23.88;53.24
76106;BME280;64832;45.274;5.880;2023-10-08T00:29:03;99883.72;;;23.83;53.57
76106;BME280;64832;45.274;5.880;2023-10-08T00:31:44;99894.72;;;23.88;53.51
76106;BME280;64832;45.274;5.880;2023-10-08T00:34:11;99887.59;;;23.87;53.52
76106;BME280;64832;45.274;5.880;2023-10-08T00:36:38;99893.88;;;23.87;53.91
76106;BME280;64832;45.274;5.880;2023-10-08T00:39:04;99883.28;;;23.91;54.00
76106;BME280;64832;45.274;5.880;2023-10-08T00:41:33;99862.56;;;23.78;53.90
76106;BME280;64832;45.274;5.880;2023-10-08T00:43:59;99880.22;;;23.87;53.68
76106;BME280;64832;45.274;5.880;2023-10-08T00:46:25;99881.28;;;23.86;53.67
76106;BME280;64832;45.274;5.880;2023-10-08T00:48:56;99875.25;;;23.84;53.70
76106;BME280;64832;45.274;5.880;2023-10-08T00:51:27;99869.44;;;23.81;53.46
76106;BME280;64832;45.274;5.880;2023-10-08T00:54:02;99871.13;;;23.82;53.36
76106;BME280;64832;45.274;5.880;2023-10-08T00:56:36;99862.56;;;23.78;53.73
76106;BME280;64832;45.274;5.880;2023-10-08T00:59:20;99864.47;;;23.78;53.87
76106;BME280;64832;45.274;5.880;2023-10-08T01:01:48;99869.94;;;23.78;53.57
76106;BME280;64832;45.274;5.880;2023-10-08T01:04:21;99864.75;;;23.76;53.73
76106;BME280;64832;45.274;5.880;2023-10-08T01:06:53;99868.53;;;23.75;53.75
76106;BME280;64832;45.274;5.880;2023-10-08T01:09:27;99868.53;;;23.75;53.72
76106;BME280;64832;45.274;5.880;2023-10-08T01:12:11;99866.91;;;23.74;53.54
76106;BME280;64832;45.274;5.880;2023-10-08T01:14:57;99869.88;;;23.73;53.53
76106;BME280;64832;45.274;5.880;2023-10-08T01:17:30;99866.56;;;23.71;53.42
76106;BME280;64832;45.274;5.880;2023-10-08T01:19:58;99876.16;;;23.73;53.59
76106;BME280;64832;45.274;5.880;2023-10-08T01:22:46;99866.56;;;23.71;53.90
76106;BME280;64832;45.274;5.880;2023-10-08T01:25:11;99872.03;;;23.71;53.80
76106;BME280;64832;45.274;5.880;2023-10-08T01:27:45;99871.19;;;23.70;53.59
76106;BME280;64832;45.274;5.880;2023-10-08T01:30:12;99872.28;;;23.69;53.65
76106;BME280;64832;45.274;5.880;2023-10-08T01:32:43;99867.41;;;23.71;53.60
76106;BME280;64832;45.274;5.880;2023-10-08T01:35:09;99876.66;;;23.70;53.74
76106;BME280;64832;45.274;5.880;2023-10-08T01:37:49;99873.94;;;23.70;53.83
76106;BME280;64832;45.274;5.880;2023-10-08T01:40:16;99875.03;;;23.69;53.94
76106;BME280;64832;45.274;5.880;2023-10-08T01:42:42;99870.63;;;23.68;53.90
76106;BME280;64832;45.274;5.880;2023-10-08T01:45:09;99874.41;;;23.67;53.85
76106;BME280;64832;45.274;5.880;2023-10-08T01:47:37;99866.22;;;23.67;53.77
76106;BME280;64832;45.274;5.880;2023-10-08T01:50:03;99857.13;;;23.62;53.70
76106;BME280;64832;45.274;5.880;2023-10-08T01:52:43;99864.59;;;23.66;53.94
76106;BME280;64832;45.274;5.880;2023-10-08T01:55:11;99862.66;;;23.67;54.21
76106;BME280;64832;45.274;5.880;2023-10-08T01:57:42;99857.44;;;23.65;54.14
76106;BME280;64832;45.274;5.880;2023-10-08T02:00:08;99859.13;;;23.66;54.26
76106;BME280;64832;45.274;5.880;2023-10-08T02:02:35;99862.66;;;23.67;54.01
76106;BME280;64832;45.274;5.880;2023-10-08T02:05:01;99857.44;;;23.65;54.42
76106;BME280;64832;45.274;5.880;2023-10-08T02:07:26;99862.09;;;23.65;54.13
76106;BME280;64832;45.274;5.880;2023-10-08T02:09:51;99856.88;;;23.63;54.46
76106;BME280;64832;45.274;5.880;2023-10-08T02:12:18;99857.94;;;23.62;54.44
76106;BME280;64832;45.274;5.880;2023-10-08T02:14:43;99866.97;;;23.63;54.16
76106;BME280;64832;45.274;5.880;2023-10-08T02:17:09;99867.53;;;23.65;54.08
76106;BME280;64832;45.274;5.880;2023-10-08T02:19:35;99865.06;;;23.63;54.31
76106;BME280;64832;45.274;5.880;2023-10-08T02:22:03;99865.91;;;23.64;54.28
76106;BME280;64832;45.274;5.880;2023-10-08T02:24:33;99874.34;;;23.62;54.67
76106;BME280;64832;45.274;5.880;2023-10-08T02:26:58;99868.53;;;23.59;54.69
76106;BME280;64832;45.274;5.880;2023-10-08T02:29:29;99874.91;;;23.64;54.69
76106;BME280;64832;45.274;5.880;2023-10-08T02:31:57;99869.72;;;23.63;54.57
76106;BME280;64832;45.274;5.880;2023-10-08T02:34:24;99873.28;;;23.63;54.49
76106;BME280;64832;45.274;5.880;2023-10-08T02:36:50;99866.97;;;23.63;54.76
76106;BME280;64832;45.274;5.880;2023-10-08T02:39:15;99878.97;;;23.62;54.64
76106;BME280;64832;45.274;5.880;2023-10-08T02:41:51;99868.31;;;23.60;54.71
76106;BME280;64832;45.274;5.880;2023-10-08T02:44:17;99881.69;;;23.62;55.10
76106;BME280;64832;45.274;5.880;2023-10-08T02:46:43;99872.66;;;23.61;55.05
76106;BME280;64832;45.274;5.880;2023-10-08T02:49:19;99870.78;;;23.62;54.98
76106;BME280;64832;45.274;5.880;2023-10-08T02:51:51;99866.13;;;23.62;55.00
76106;BME280;64832;45.274;5.880;2023-10-08T02:54:18;99871.03;;;23.60;55.19
76106;BME280;64832;45.274;5.880;2023-10-08T02:56:49;99871.03;;;23.60;55.28
76106;BME280;64832;45.274;5.880;2023-10-08T02:59:23;99865.00;;;23.58;55.30
76106;BME280;64832;45.274;5.880;2023-10-08T03:01:49;99867.72;;;23.58;55.52
76106;BME280;64832;45.274;5.880;2023-10-08T03:04:15;99863.31;;;23.57;55.62
76106;BME280;64832;45.274;5.880;2023-10-08T03:06:47;99866.63;;;23.59;55.86
76106;BME280;64832;45.274;5.880;2023-10-08T03:09:15;99875.09;;;23.58;55.60
76106;BME280;64832;45.274;5.880;2023-10-08T03:11:46;99875.91;;;23.58;55.63
76106;BME280;64832;45.274;5.880;2023-10-08T03:14:12;99867.72;;;23.58;56.00
76106;BME280;64832;45.274;5.880;2023-10-08T03:16:47;99873.41;;;23.57;55.81
76106;BME280;64832;45.274;5.880;2023-10-08T03:19:13;99873.19;;;23.58;56.19
76106;BME280;64832;45.274;5.880;2023-10-08T03:21:43;99869.28;;;23.54;56.04
76106;BME280;64832;45.274;5.880;2023-10-08T03:24:16;99872.00;;;23.54;56.07
76106;BME280;64832;45.274;5.880;2023-10-08T03:27:05;99881.03;;;23.55;56.19
76106;BME280;64832;45.274;5.880;2023-10-08T03:29:34;99875.56;;;23.55;56.36
76106;BME280;64832;45.274;5.880;2023-10-08T03:32:11;99879.16;;;23.55;56.31
76106;BME280;64832;45.274;5.880;2023-10-08T03:34:46;99885.94;;;23.53;56.40
76106;BME280;64832;45.274;5.880;2023-10-08T03:37:17;99888.66;;;23.53;56.59
76106;BME280;64832;45.274;5.880;2023-10-08T03:39:50;99893.88;;;23.54;56.39
76106;BME280;64832;45.274;5.880;2023-10-08T03:42:26;99888.06;;;23.51;56.64
76106;BME280;64832;45.274;5.880;2023-10-08T03:44:59;99902.31;;;23.53;56.77
76106;BME280;64832;45.274;5.880;2023-10-08T03:47:35;99893.28;;;23.52;56.62
76106;BME280;64832;45.274;5.880;2023-10-08T03:50:04;99890.56;;;23.52;56.85
76106;BME280;64832;45.274;5.880;2023-10-08T03:52:31;99892.44;;;23.52;56.80
76106;BME280;64832;45.274;5.880;2023-10-08T03:54:56;99887.97;;;23.46;56.59
76106;BME280;64832;45.274;5.880;2023-10-08T03:57:51;99886.66;;;23.48;56.70
76106;BME280;64832;45.274;5.880;2023-10-08T04:00:22;99888.06;;;23.51;56.89
76106;BME280;64832;45.274;5.880;2023-10-08T04:02:56;99892.38;;;23.47;56.92
76106;BME280;64832;45.274;5.880;2023-10-08T04:05:26;99897.09;;;23.51;56.86
76106;BME280;64832;45.274;5.880;2023-10-08T04:08:06;99892.94;;;23.49;56.78
76106;BME280;64832;45.274;5.880;2023-10-08T04:10:42;99889.63;;;23.47;56.84
76106;BME280;64832;45.274;5.880;2023-10-08T04:13:08;99899.25;;;23.49;56.82
76106;BME280;64832;45.274;5.880;2023-10-08T04:18:04;99899.25;;;23.49;56.94
76106;BME280;64832;45.274;5.880;2023-10-08T04:23:02;99895.69;;;23.49;57.03
76106;BME280;64832;45.274;5.880;2023-10-08T04:25:32;99895.09;;;23.47;57.24
76106;BME280;64832;45.274;5.880;2023-10-08T04:27:58;99897.56;;;23.48;57.28
76106;BME280;64832;45.274;5.880;2023-10-08T04:30:32;99894.00;;;23.48;57.13
76106;BME280;64832;45.274;5.880;2023-10-08T04:33:03;99893.19;;;23.47;57.22
76106;BME280;64832;45.274;5.880;2023-10-08T04:35:39;99891.53;;;23.46;57.12
76106;BME280;64832;45.274;5.880;2023-10-08T04:38:18;99896.16;;;23.46;57.28
76106;BME280;64832;45.274;5.880;2023-10-08T04:40:45;99890.69;;;23.46;57.15
76106;BME280;64832;45.274;5.880;2023-10-08T04:43:18;99892.59;;;23.45;57.16
76106;BME280;64832;45.274;5.880;2023-10-08T04:45:53;99894.53;;;23.45;57.31
76106;BME280;64832;45.274;5.880;2023-10-08T04:48:20;99893.91;;;23.43;57.51
76106;BME280;64832;45.274;5.880;2023-10-08T04:50:48;99894.75;;;23.43;57.30
76106;BME280;64832;45.274;5.880;2023-10-08T04:53:36;99896.91;;;23.41;57.25
76106;BME280;64832;45.274;5.880;2023-10-08T04:56:04;99896.06;;;23.41;57.19
76106;BME280;64832;45.274;5.880;2023-10-08T04:58:39;99904.00;;;23.42;57.47
76106;BME280;64832;45.274;5.880;2023-10-08T05:01:06;99908.06;;;23.39;57.07
76106;BME280;64832;45.274;5.880;2023-10-08T05:03:50;99905.34;;;23.39;57.42
76106;BME280;64832;45.274;5.880;2023-10-08T05:06:32;99914.13;;;23.42;57.29
76106;BME280;64832;45.274;5.880;2023-10-08T05:09:01;99916.25;;;23.39;57.25
76106;BME280;64832;45.274;5.880;2023-10-08T05:11:35;99916.50;;;23.38;57.17
76106;BME280;64832;45.274;5.880;2023-10-08T05:14:24;99916.25;;;23.39;57.07
76106;BME280;64832;45.274;5.880;2023-10-08T05:17:06;99921.97;;;23.38;57.20
76106;BME280;64832;45.274;5.880;2023-10-08T05:19:39;99920.06;;;23.38;57.10
76106;BME280;64832;45.274;5.880;2023-10-08T05:22:05;99914.81;;;23.37;57.34
76106;BME280;64832;45.274;5.880;2023-10-08T05:24:49;99929.34;;;23.37;57.55
76106;BME280;64832;45.274;5.880;2023-10-08T05:27:41;99930.16;;;23.38;57.38
76106;BME280;64832;45.274;5.880;2023-10-08T05:30:20;99921.50;;;23.29;57.42
76106;BME280;64832;45.274;5.880;2023-10-08T05:33:05;99933.09;;;23.36;57.35
76106;BME280;64832;45.274;5.880;2023-10-08T05:35:44;99936.06;;;23.35;57.61
76106;BME280;64832;45.274;5.880;2023-10-08T05:38:15;99929.56;;;23.36;57.38
76106;BME280;64832;45.274;5.880;2023-10-08T05:40:56;99933.34;;;23.35;57.68
76106;BME280;64832;45.274;5.880;2023-10-08T05:43:27;99938.56;;;23.36;57.74
76106;BME280;64832;45.274;5.880;2023-10-08T05:46:18;99935.25;;;23.34;57.40
76106;BME280;64832;45.274;5.880;2023-10-08T05:48:58;99944.28;;;23.35;57.39
76106;BME280;64832;45.274;5.880;2023-10-08T05:51:40;99945.09;;;23.35;57.44
76106;BME280;64832;45.274;5.880;2023-10-08T05:54:23;99948.66;;;23.36;57.22
76106;BME280;64832;45.274;5.880;2023-10-08T05:56:56;99951.63;;;23.34;57.40
76106;BME280;64832;45.274;5.880;2023-10-08T06:02:24;99956.25;;;23.34;57.22
76106;BME280;64832;45.274;5.880;2023-10-08T06:04:59;99967.19;;;23.34;57.35
76106;BME280;64832;45.274;5.880;2023-10-08T06:07:38;99968.25;;;23.33;57.41
76106;BME280;64832;45.274;5.880;2023-10-08T06:10:14;99962.19;;;23.31;57.63
76106;BME280;64832;45.274;5.880;2023-10-08T06:12:59;99963.03;;;23.31;57.61
76106;BME280;64832;45.274;5.880;2023-10-08T06:15:40;99959.47;;;23.31;57.41
76106;BME280;64832;45.274;5.880;2023-10-08T06:18:32;99968.75;;;23.30;57.57
76106;BME280;64832;45.274;5.880;2023-10-08T06:21:04;99973.94;;;23.31;57.41
76106;BME280;64832;45.274;5.880;2023-10-08T06:23:40;99975.03;;;23.30;57.57
76106;BME280;64832;45.274;5.880;2023-10-08T06:26:07;99980.72;;;23.29;57.78
76106;BME280;64832;45.274;5.880;2023-10-08T06:28:35;99979.09;;;23.28;57.60
76106;BME280;64832;45.274;5.880;2023-10-08T06:31:03;99982.41;;;23.30;57.35
76106;BME280;64832;45.274;5.880;2023-10-08T06:33:32;99983.47;;;23.29;57.42
76106;BME280;64832;45.274;5.880;2023-10-08T06:35:59;99977.41;;;23.27;57.11
76106;BME280;64832;45.274;5.880;2023-10-08T06:38:34;99987.28;;;23.28;57.08
76106;BME280;64832;45.274;5.880;2023-10-08T06:41:02;99991.06;;;23.27;57.26
76106;BME280;64832;45.274;5.880;2023-10-08T06:43:46;99998.44;;;23.26;57.28
76106;BME280;64832;45.274;5.880;2023-10-08T06:46:18;99986.84;;;23.19;57.34
76106;BME280;64832;45.274;5.880;2023-10-08T06:48:49;99997.59;;;23.26;57.16
76106;BME280;64832;45.274;5.880;2023-10-08T06:51:15;100001.41;;;23.25;57.05
76106;BME280;64832;45.274;5.880;2023-10-08T06:53:44;100009.59;;;23.25;57.10
76106;BME280;64832;45.274;5.880;2023-10-08T06:56:11;100005.47;;;23.22;57.24
76106;BME280;64832;45.274;5.880;2023-10-08T06:58:38;100006.25;;;23.23;57.08
76106;BME280;64832;45.274;5.880;2023-10-08T07:01:04;100007.94;;;23.24;57.36
76106;BME280;64832;45.274;5.880;2023-10-08T07:03:31;99999.16;;;23.22;57.11
76106;BME280;64832;45.274;5.880;2023-10-08T07:05:57;100008.19;;;23.22;57.27
76106;BME280;64832;45.274;5.880;2023-10-08T07:08:29;100003.31;;;23.24;57.30
76106;BME280;64832;45.274;5.880;2023-10-08T07:10:59;100006.25;;;23.23;57.24
76106;BME280;64832;45.274;5.880;2023-10-08T07:13:26;100004.00;;;23.20;57.27
76106;BME280;64832;45.274;5.880;2023-10-08T07:15:54;100002.47;;;23.24;57.50
76106;BME280;64832;45.274;5.880;2023-10-08T07:18:21;100002.28;;;23.14;52.78
76106;BME280;64832;45.274;5.880;2023-10-08T07:20:51;100002.56;;;22.89;51.00
76106;BME280;64832;45.274;5.880;2023-10-08T07:23:22;100000.75;;;22.60;50.61
76106;BME280;64832;45.274;5.880;2023-10-08T07:25:57;100009.41;;;22.34;50.15
76106;BME280;64832;45.274;5.880;2023-10-08T07:28:25;100009.56;;;21.97;50.66
76106;BME280;64832;45.274;5.880;2023-10-08T07:30:51;100006.38;;;21.71;50.94
76106;BME280;64832;45.274;5.880;2023-10-08T07:33:18;100012.31;;;21.49;51.22
76106;BME280;64832;45.274;5.880;2023-10-08T07:35:47;100013.56;;;21.35;51.35
76106;BME280;64832;45.274;5.880;2023-10-08T07:38:25;100000.03;;;21.11;51.61
76106;BME280;64832;45.274;5.880;2023-10-08T07:40:52;100002.81;;;21.04;51.66
76106;BME280;64832;45.274;5.880;2023-10-08T07:43:19;100007.50;;;20.97;52.23
76106;BME280;64832;45.274;5.880;2023-10-08T07:45:45;100013.69;;;20.86;52.43
76106;BME280;64832;45.274;5.880;2023-10-08T07:48:11;100007.50;;;20.79;52.50
76106;BME280;64832;45.274;5.880;2023-10-08T07:50:45;100012.31;;;20.77;52.59
76106;BME280;64832;45.274;5.880;2023-10-08T07:53:11;100013.25;;;20.71;53.19
76106;BME280;64832;45.274;5.880;2023-10-08T07:55:44;100013.88;;;20.66;53.27
76106;BME280;64832;45.274;5.880;2023-10-08T07:58:10;100003.69;;;20.62;53.72
76106;BME280;64832;45.274;5.880;2023-10-08T08:00:36;100022.53;;;20.81;53.73
76106;BME280;64832;45.274;5.880;2023-10-08T08:03:04;100022.84;;;20.91;54.27
76106;BME280;64832;45.274;5.880;2023-10-08T08:05:30;100014.63;;;20.98;53.87
76106;BME280;64832;45.274;5.880;2023-10-08T08:07:55;100014.38;;;20.99;53.80
76106;BME280;64832;45.274;5.880;2023-10-08T08:10:23;100008.56;;;20.96;53.61
76106;BME280;64832;45.274;5.880;2023-10-08T08:12:49;100011.78;;;21.04;53.48
76106;BME280;64832;45.274;5.880;2023-10-08T08:15:20;100014.09;;;21.07;53.35
76106;BME280;64832;45.274;5.880;2023-10-08T08:17:45;100017.00;;;21.13;53.09
76106;BME280;64832;45.274;5.880;2023-10-08T08:20:13;100028.31;;;21.10;53.26
76106;BME280;64832;45.274;5.880;2023-10-08T08:22:44;100015.34;;;21.05;53.85
76106;BME280;64832;45.274;5.880;2023-10-08T08:25:16;100017.88;;;21.06;53.63
76106;BME280;64832;45.274;5.880;2023-10-08T08:27:44;100019.59;;;21.01;53.48
76106;BME280;64832;45.274;5.880;2023-10-08T08:30:14;100010.91;;;20.92;53.09
76106;BME280;64832;45.274;5.880;2023-10-08T08:32:44;100010.38;;;20.84;53.56
76106;BME280;64832;45.274;5.880;2023-10-08T08:35:13;100012.50;;;20.82;53.75
76106;BME280;64832;45.274;5.880;2023-10-08T08:37:42;100020.25;;;20.78;54.34
76106;BME280;64832;45.274;5.880;2023-10-08T08:40:08;100013.00;;;20.72;54.44
76106;BME280;64832;45.274;5.880;2023-10-08T08:42:34;100010.38;;;20.66;54.28
76106;BME280;64832;45.274;5.880;2023-10-08T08:45:03;100012.41;;;20.70;54.60
76106;BME280;64832;45.274;5.880;2023-10-08T08:47:34;100002.88;;;20.61;54.65
76106;BME280;64832;45.274;5.880;2023-10-08T08:50:02;100003.66;;;20.68;54.38
76106;BME280;64832;45.274;5.880;2023-10-08T08:52:37;99999.50;;;20.66;54.57
76106;BME280;64832;45.274;5.880;2023-10-08T08:55:04;100008.00;;;20.69;54.85
76106;BME280;64832;45.274;5.880;2023-10-08T08:57:36;100004.69;;;20.67;54.76
76106;BME280;64832;45.274;5.880;2023-10-08T09:00:05;100006.13;;;20.70;54.85
76106;BME280;64832;45.274;5.880;2023-10-08T09:02:40;100012.16;;;20.72;54.99
76106;BME280;64832;45.274;5.880;2023-10-08T09:05:07;100004.25;;;20.70;54.91
76106;BME280;64832;45.274;5.880;2023-10-08T09:10:28;100008.34;;;20.79;54.96
76106;BME280;64832;45.274;5.880;2023-10-08T09:12:55;100005.31;;;20.87;54.94
76106;BME280;64832;45.274;5.880;2023-10-08T09:15:28;100005.22;;;20.94;54.79
76106;BME280;64832;45.274;5.880;2023-10-08T09:17:54;100003.88;;;21.03;54.66
76106;BME280;64832;45.274;5.880;2023-10-08T09:20:21;99998.41;;;21.10;54.46
76106;BME280;64832;45.274;5.880;2023-10-08T09:23:08;100006.25;;;21.18;54.49
76106;BME280;64832;45.274;5.880;2023-10-08T09:25:37;100005.81;;;21.21;54.45
76106;BME280;64832;45.274;5.880;2023-10-08T09:28:03;99992.78;;;21.23;54.33
76106;BME280;64832;45.274;5.880;2023-10-08T09:30:35;99996.50;;;21.28;54.32
76106;BME280;64832;45.274;5.880;2023-10-08T09:33:07;99992.69;;;21.29;54.14
76106;BME280;64832;45.274;5.880;2023-10-08T09:35:34;99995.78;;;21.33;54.16
76106;BME280;64832;45.274;5.880;2023-10-08T09:38:03;99984.91;;;21.33;54.19
76106;BME280;64832;45.274;5.880;2023-10-08T09:40:29;99985.50;;;21.35;54.10
76106;BME280;64832;45.274;5.880;2023-10-08T09:42:55;99989.69;;;21.37;54.26
76106;BME280;64832;45.274;5.880;2023-10-08T09:45:21;99985.22;;;21.43;54.33
76106;BME280;64832;45.274;5.880;2023-10-08T09:47:53;99982.47;;;21.43;54.32
76106;BME280;64832;45.274;5.880;2023-10-08T09:50:25;99984.97;;;21.44;54.31
76106;BME280;64832;45.274;5.880;2023-10-08T09:53:11;99975.28;;;21.48;54.18
76106;BME280;64832;45.274;5.880;2023-10-08T09:55:57;99963.56;;;21.48;54.23
76106;BME280;64832;45.274;5.880;2023-10-08T09:58:25;99968.75;;;21.49;54.00
76106;BME280;64832;45.274;5.880;2023-10-08T10:00:56;99973.28;;;21.55;54.08
76106;BME280;64832;45.274;5.880;2023-10-08T10:03:24;99964.88;;;21.57;53.98
76106;BME280;64832;45.274;5.880;2023-10-08T10:05:51;99955.44;;;21.59;54.13
76106;BME280;64832;45.274;5.880;2023-10-08T10:08:17;99953.06;;;21.63;54.10
76106;BME280;64832;45.274;5.880;2023-10-08T10:10:44;99948.44;;;21.63;53.87
76106;BME280;64832;45.274;5.880;2023-10-08T10:13:13;99953.69;;;21.65;54.00
76106;BME280;64832;45.274;5.880;2023-10-08T10:15:42;99950.25;;;21.70;53.73
76106;BME280;64832;45.274;5.880;2023-10-08T10:18:28;99951.22;;;21.75;53.82
76106;BME280;64832;45.274;5.880;2023-10-08T10:20:58;99940.06;;;21.77;53.61
76106;BME280;64832;45.274;5.880;2023-10-08T10:23:37;99943.16;;;21.80;53.63
76106;BME280;64832;45.274;5.880;2023-10-08T10:26:20;99928.50;;;21.81;53.57
76106;BME280;64832;45.274;5.880;2023-10-08T10:29:17;99933.00;;;21.87;53.61
76106;BME280;64832;45.274;5.880;2023-10-08T10:31:49;99929.25;;;21.88;53.62
76106;BME280;64832;45.274;5.880;2023-10-08T10:34:22;99920.00;;;21.89;53.54
76106;BME280;64832;45.274;5.880;2023-10-08T10:36:50;99923.56;;;21.90;53.69
76106;BME280;64832;45.274;5.880;2023-10-08T10:39:20;99924.53;;;21.95;53.58
76106;BME280;64832;45.274;5.880;2023-10-08T10:41:56;99918.59;;;21.98;53.56
76106;BME280;64832;45.274;5.880;2023-10-08T10:44:36;99913.97;;;21.99;53.54
76106;BME280;64832;45.274;5.880;2023-10-08T10:47:02;99919.53;;;22.04;53.50
76106;BME280;64832;45.274;5.880;2023-10-08T10:49:40;99912.56;;;22.08;53.42
76106;BME280;64832;45.274;5.880;2023-10-08T10:52:25;99913.16;;;22.10;53.53
76106;BME280;64832;45.274;5.880;2023-10-08T10:55:00;99915.53;;;22.06;53.47
76106;BME280;64832;45.274;5.880;2023-10-08T10:57:54;99911.88;;;22.01;53.69
76106;BME280;64832;45.274;5.880;2023-10-08T11:00:28;99912.44;;;22.03;53.64
76106;BME280;64832;45.274;5.880;2023-10-08T11:02:57;99902.84;;;22.00;53.79
76106;BME280;64832;45.274;5.880;2023-10-08T11:05:29;99900.13;;;22.00;53.91
76106;BME280;64832;45.274;5.880;2023-10-08T11:07:59;99902.38;;;22.03;53.74
76106;BME280;64832;45.274;5.880;2023-10-08T11:10:33;99897.72;;;22.04;53.74
76106;BME280;64832;45.274;5.880;2023-10-08T11:12:59;99891.47;;;22.03;53.60
76106;BME280;64832;45.274;5.880;2023-10-08T11:15:28;99893.13;;;22.04;53.66
76106;BME280;64832;45.274;5.880;2023-10-08T11:18:13;99890.75;;;22.08;53.67
76106;BME280;64832;45.274;5.880;2023-10-08T11:20:40;99880.13;;;22.06;53.64
76106;BME280;64832;45.274;5.880;2023-10-08T11:23:54;99877.59;;;22.05;53.68
76106;BME280;64832;45.274;5.880;2023-10-08T11:25:56;99872.53;;;22.08;53.77
76106;BME280;64832;45.274;5.880;2023-10-08T11:28:37;99870.63;;;22.09;53.71
76106;BME280;64832;45.274;5.880;2023-10-08T11:31:12;99866.59;;;22.11;53.58
76106;BME280;64832;45.274;5.880;2023-10-08T11:33:42;99864.09;;;22.10;53.68
76106;BME280;64832;45.274;5.880;2023-10-08T11:36:17;99854.88;;;22.11;53.55
76106;BME280;64832;45.274;5.880;2023-10-08T11:38:46;99846.31;;;22.07;53.38
76106;BME280;64832;45.274;5.880;2023-10-08T11:41:16;99852.25;;;22.16;53.59
76106;BME280;64832;45.274;5.880;2023-10-08T11:43:53;99848.47;;;22.17;53.57
76106;BME280;64832;45.274;5.880;2023-10-08T11:46:26;99848.22;;;22.18;53.47
76106;BME280;64832;45.274;5.880;2023-10-08T11:49:12;99832.13;;;22.17;53.79
76106;BME280;64832;45.274;5.880;2023-10-08T11:51:43;99837.31;;;22.18;53.45
76106;BME280;64832;45.274;5.880;2023-10-08T11:54:09;99833.28;;;22.21;53.51
76106;BME280;64832;45.274;5.880;2023-10-08T11:56:37;99831.16;;;22.23;53.55
76106;BME280;64832;45.274;5.880;2023-10-08T11:59:04;99825.47;;;22.24;53.48
76106;BME280;64832;45.274;5.880;2023-10-08T12:01:37;99814.56;;;22.24;53.41
76106;BME280;64832;45.274;5.880;2023-10-08T12:04:03;99818.22;;;22.30;53.34
76106;BME280;64832;45.274;5.880;2023-10-08T12:06:29;99805.66;;;22.29;53.33
76106;BME280;64832;45.274;5.880;2023-10-08T12:08:58;99810.63;;;22.32;53.33
76106;BME280;64832;45.274;5.880;2023-10-08T12:11:26;99799.97;;;22.31;53.33
76106;BME280;64832;45.274;5.880;2023-10-08T12:13:59;99803.06;;;22.34;53.30
76106;BME280;64832;45.274;5.880;2023-10-08T12:16:25;99794.63;;;22.36;53.35
76106;BME280;64832;45.274;5.880;2023-10-08T12:18:55;99798.78;;;22.38;53.24
76106;BME280;64832;45.274;5.880;2023-10-08T12:21:41;99790.59;;;22.38;53.29
76106;BME280;64832;45.274;5.880;2023-10-08T12:24:06;99793.66;;;22.42;53.29
76106;BME280;64832;45.274;5.880;2023-10-08T12:26:35;99786.31;;;22.42;53.24
76106;BME280;64832;45.274;5.880;2023-10-08T12:29:01;99781.69;;;22.43;53.21
76106;BME280;64832;45.274;5.880;2023-10-08T12:31:26;99768.53;;;22.40;53.11
76106;BME280;64832;45.274;5.880;2023-10-08T12:33:54;99762.94;;;22.46;53.21
76106;BME280;64832;45.274;5.880;2023-10-08T12:36:28;99764.00;;;22.45;53.20
76106;BME280;64832;45.274;5.880;2023-10-08T12:38:58;99764.13;;;22.50;53.20
76106;BME280;64832;45.274;5.880;2023-10-08T12:41:24;99761.97;;;22.52;53.24
76106;BME280;64832;45.274;5.880;2023-10-08T12:43:52;99754.03;;;22.51;53.22
76106;BME280;64832;45.274;5.880;2023-10-08T12:46:19;99757.94;;;22.55;53.17
76106;BME280;64832;45.274;5.880;2023-10-08T12:48:49;99750.81;;;22.54;53.21
76106;BME280;64832;45.274;5.880;2023-10-08T12:51:18;99745.97;;;22.56;53.19
76106;BME280;64832;45.274;5.880;2023-10-08T12:53:44;99741.50;;;22.50;53.30
76106;BME280;64832;45.274;5.880;2023-10-08T12:56:28;99751.25;;;22.62;53.36
76106;BME280;64832;45.274;5.880;2023-10-08T12:58:59;99751.25;;;22.62;53.36
76106;BME280;64832;45.274;5.880;2023-10-08T13:01:24;99733.50;;;22.60;53.21
76106;BME280;64832;45.274;5.880;2023-10-08T13:03:54;99744.66;;;22.70;53.34
76106;BME280;64832;45.274;5.880;2023-10-08T13:06:25;99740.81;;;22.71;53.57
76106;BME280;64832;45.274;5.880;2023-10-08T13:08:57;99742.84;;;22.75;53.56
76106;BME280;64832;45.274;5.880;2023-10-08T13:11:24;99741.75;;;22.76;53.47
76106;BME280;64832;45.274;5.880;2023-10-08T13:16:17;99747.63;;;22.85;53.88
76106;BME280;64832;45.274;5.880;2023-10-08T13:18:43;99736.97;;;22.84;53.80
76106;BME280;64832;45.274;5.880;2023-10-08T13:21:09;99738.97;;;22.88;53.84
76106;BME280;64832;45.274;5.880;2023-10-08T13:23:35;99732.75;;;22.93;53.67
76106;BME280;64832;45.274;5.880;2023-10-08T13:26:01;99725.97;;;22.95;53.75
76106;BME280;64832;45.274;5.880;2023-10-08T13:28:30;99724.09;;;22.96;53.81
76106;BME280;64832;45.274;5.880;2023-10-08T13:30:59;99724.78;;;23.03;53.93
76106;BME280;64832;45.274;5.880;2023-10-08T13:33:24;99725.34;;;23.05;54.00